sensor_id;sensor_type;location;lat;lon;timestamp;pressure;altitude;pressure_sealevel;temperature;humidity
8061;BME280;4073;42.626;25.386;2023-08-24T00:00:39;97271.50;;;23.75;100.00
8061;BME280;4073;42.626;25.386;2023-08-24T00:03:05;97255.03;;;23.71;100.00
8061;BME280;4073;42.626;25.386;2023-08-24T00:05:37;97262.44;;;23.71;100.00
8061;BME280;4073;42.626;25.386;2023-08-24T00:08:07;97264.22;;;23.63;100.00
8061;BME280;4073;42.626;25.386;2023-08-24T00:10:33;97250.28;;;23.53;100.00
8061;BME280;4073;42.626;25.386;2023-08-24T00:12:59;97251.97;;;23.57;100.00
8061;BME280;4073;42.626;25.386;2023-08-24T00:15:24;97257.66;;;23.68;100.00
8061;BME280;4073;42.626;25.386;2023-08-24T00:17:50;97252.50;;;23.63;100.00
8061;BME280;4073;42.626;25.386;2023-08-24T00:20:15;97250.75;;;23.70;100.00
8061;BME280;4073;42.626;25.386;2023-08-24T00:22:42;97242.56;;;23.55;100.00
8061;BME280;4073;42.626;25.386;2023-08-24T00:25:08;97247.84;;;23.63;100.00
8061;BME280;4073;42.626;25.386;2023-08-24T00:27:34;97241.47;;;23.59;100.00
8061;BME280;4073;42.626;25.386;2023-08-24T00:30:02;97246.94;;;23.59;100.00
8061;BME280;4073;42.626;25.386;2023-08-24T00:32:29;97246.22;;;23.62;100.00
8061;BME280;4073;42.626;25.386;2023-08-24T00:34:55;97237.09;;;23.55;100.00
8061;BME280;4073;42.626;25.386;2023-08-24T00:37:21;97246.16;;;23.59;100.00
8061;BME280;4073;42.626;25.386;2023-08-24T00:39:46;97246.34;;;23.66;100.00
8061;BME280;4073;42.626;25.386;2023-08-24T00:42:12;97239.72;;;23.51;100.00
8061;BME280;4073;42.626;25.386;2023-08-24T00:44:40;97245.28;;;23.55;100.00
8061;BME280;4073;42.626;25.386;2023-08-24T00:47:07;97234.56;;;23.46;100.00
8061;BME280;4073;42.626;25.386;2023-08-24T00:49:33;97239.28;;;23.49;100.00
8061;BME280;4073;42.626;25.386;2023-08-24T00:51:58;97234.47;;;23.43;100.00
8061;BME280;4073;42.626;25.386;2023-08-24T00:54:25;97233.13;;;23.37;100.00
8061;BME280;4073;42.626;25.386;2023-08-24T00:56:51;97228.53;;;23.25;100.00
8061;BME280;4073;42.626;25.386;2023-08-24T00:59:17;97242.19;;;23.25;100.00
8061;BME280;4073;42.626;25.386;2023-08-24T01:01:44;97229.56;;;23.05;100.00
8061;BME280;4073;42.626;25.386;2023-08-24T01:04:11;97239.22;;;23.03;100.00
8061;BME280;4073;42.626;25.386;2023-08-24T01:06:37;97233.34;;;23.01;100.00
8061;BME280;4073;42.626;25.386;2023-08-24T01:09:03;97233.78;;;23.03;100.00
8061;BME280;4073;42.626;25.386;2023-08-24T01:15:23;97225.53;;;22.99;100.00
8061;BME280;4073;42.626;25.386;2023-08-24T01:17:23;97213.56;;;23.04;100.00
8061;BME280;4073;42.626;25.386;2023-08-24T01:19:52;97214.63;;;22.99;100.00
8061;BME280;4073;42.626;25.386;2023-08-24T01:22:33;97213.53;;;22.88;100.00
8061;BME280;4073;42.626;25.386;2023-08-24T01:25:06;97213.91;;;22.87;100.00
8061;BME280;4073;42.626;25.386;2023-08-24T01:27:36;97209.91;;;22.84;100.00
8061;BME280;4073;42.626;25.386;2023-08-24T01:30:06;97214.69;;;22.87;100.00
8061;BME280;4073;42.626;25.386;2023-08-24T01:32:33;97194.81;;;22.87;100.00
8061;BME280;4073;42.626;25.386;2023-08-24T01:35:03;97204.75;;;22.95;100.00
8061;BME280;4073;42.626;25.386;2023-08-24T01:37:29;97208.28;;;22.95;100.00
8061;BME280;4073;42.626;25.386;2023-08-24T01:40:06;97201.56;;;22.93;100.00
8061;BME280;4073;42.626;25.386;2023-08-24T01:42:37;97214.44;;;22.92;100.00
8061;BME280;4073;42.626;25.386;2023-08-24T01:45:08;97208.44;;;22.87;100.00
8061;BME280;4073;42.626;25.386;2023-08-24T01:47:52;97209.22;;;22.87;100.00
8061;BME280;4073;42.626;25.386;2023-08-24T01:50:20;97212.75;;;22.88;100.00
8061;BME280;4073;42.626;25.386;2023-08-24T01:52:45;97192.44;;;22.85;100.00
8061;BME280;4073;42.626;25.386;2023-08-24T01:55:11;97204.56;;;22.88;100.00
8061;BME280;4073;42.626;25.386;2023-08-24T01:57:40;97195.94;;;22.86;100.00
8061;BME280;4073;42.626;25.386;2023-08-24T02:00:06;97208.53;;;22.90;100.00
8061;BME280;4073;42.626;25.386;2023-08-24T02:02:32;97202.84;;;22.95;100.00
8061;BME280;4073;42.626;25.386;2023-08-24T02:04:58;97199.31;;;22.95;100.00
8061;BME280;4073;42.626;25.386;2023-08-24T02:07:24;97194.81;;;22.87;100.00
8061;BME280;4073;42.626;25.386;2023-08-24T02:09:49;97186.38;;;22.92;100.00
8061;BME280;4073;42.626;25.386;2023-08-24T02:12:15;97182.31;;;22.86;100.00
8061;BME280;4073;42.626;25.386;2023-08-24T02:14:41;97187.00;;;22.85;100.00
8061;BME280;4073;42.626;25.386;2023-08-24T02:17:06;97186.25;;;22.88;100.00
8061;BME280;4073;42.626;25.386;2023-08-24T02:19:31;97185.91;;;22.90;100.00
8061;BME280;4073;42.626;25.386;2023-08-24T02:21:57;97184.69;;;22.87;100.00
8061;BME280;4073;42.626;25.386;2023-08-24T02:24:22;97188.22;;;22.88;100.00
8061;BME280;4073;42.626;25.386;2023-08-24T02:26:48;97181.09;;;22.83;100.00
8061;BME280;4073;42.626;25.386;2023-08-24T02:29:14;97184.63;;;22.84;100.00
8061;BME280;4073;42.626;25.386;2023-08-24T02:31:39;97189.63;;;22.82;100.00
8061;BME280;4073;42.626;25.386;2023-08-24T02:34:06;97173.53;;;22.77;100.00
8061;BME280;4073;42.626;25.386;2023-08-24T02:36:32;97188.03;;;22.81;100.00
8061;BME280;4073;42.626;25.386;2023-08-24T02:38:59;97172.09;;;22.83;100.00
8061;BME280;4073;42.626;25.386;2023-08-24T02:41:25;97170.00;;;22.76;100.00
8061;BME280;4073;42.626;25.386;2023-08-24T02:43:51;97176.84;;;22.70;100.00
8061;BME280;4073;42.626;25.386;2023-08-24T02:46:16;97185.78;;;22.55;100.00
8061;BME280;4073;42.626;25.386;2023-08-24T02:48:43;97184.66;;;22.44;100.00
8061;BME280;4073;42.626;25.386;2023-08-24T02:51:10;97189.13;;;22.36;100.00
8061;BME280;4073;42.626;25.386;2023-08-24T02:53:35;97183.22;;;22.34;100.00
8061;BME280;4073;42.626;25.386;2023-08-24T02:56:02;97176.44;;;22.28;100.00
8061;BME280;4073;42.626;25.386;2023-08-24T02:58:28;97186.22;;;22.17;100.00
8061;BME280;4073;42.626;25.386;2023-08-24T03:00:53;97179.22;;;22.16;100.00
8061;BME280;4073;42.626;25.386;2023-08-24T03:03:19;97182.63;;;22.13;100.00
8061;BME280;4073;42.626;25.386;2023-08-24T03:05:59;97173.31;;;22.14;100.00
8061;BME280;4073;42.626;25.386;2023-08-24T03:08:25;97173.06;;;22.19;100.00
8061;BME280;4073;42.626;25.386;2023-08-24T03:10:51;97163.88;;;22.24;100.00
8061;BME280;4073;42.626;25.386;2023-08-24T03:13:16;97175.75;;;22.31;100.00
8061;BME280;4073;42.626;25.386;2023-08-24T03:15:42;97175.41;;;22.33;100.00
8061;BME280;4073;42.626;25.386;2023-08-24T03:18:07;97178.13;;;22.33;100.00
8061;BME280;4073;42.626;25.386;2023-08-24T03:20:32;97168.19;;;22.25;100.00
8061;BME280;4073;42.626;25.386;2023-08-24T03:22:58;97182.59;;;22.25;100.00
8061;BME280;4073;42.626;25.386;2023-08-24T03:25:23;97182.13;;;22.23;100.00
8061;BME280;4073;42.626;25.386;2023-08-24T03:27:49;97179.75;;;22.22;100.00
8061;BME280;4073;42.626;25.386;2023-08-24T03:30:16;97182.22;;;22.27;100.00
8061;BME280;4073;42.626;25.386;2023-08-24T03:32:41;97173.97;;;22.23;100.00
8061;BME280;4073;42.626;25.386;2023-08-24T03:35:07;97171.69;;;22.25;100.00
8061;BME280;4073;42.626;25.386;2023-08-24T03:37:33;97172.81;;;22.24;100.00
8061;BME280;4073;42.626;25.386;2023-08-24T03:39:58;97174.91;;;22.15;100.00
8061;BME280;4073;42.626;25.386;2023-08-24T03:42:24;97169.00;;;22.13;100.00
8061;BME280;4073;42.626;25.386;2023-08-24T03:44:50;97177.97;;;22.14;100.00
8061;BME280;4073;42.626;25.386;2023-08-24T03:47:15;97175.06;;;22.07;100.00
8061;BME280;4073;42.626;25.386;2023-08-24T03:49:44;97174.78;;;22.12;100.00
8061;BME280;4073;42.626;25.386;2023-08-24T03:52:09;97181.78;;;22.25;100.00
8061;BME280;4073;42.626;25.386;2023-08-24T03:54:35;97188.31;;;22.36;100.00
8061;BME280;4073;42.626;25.386;2023-08-24T03:57:01;97171.19;;;22.35;100.00
8061;BME280;4073;42.626;25.386;2023-08-24T03:59:27;97180.16;;;22.36;100.00
8061;BME280;4073;42.626;25.386;2023-08-24T04:01:52;97189.91;;;22.49;100.00
8061;BME280;4073;42.626;25.386;2023-08-24T04:04:18;97173.19;;;22.50;100.00
8061;BME280;4073;42.626;25.386;2023-08-24T04:06:43;97182.03;;;22.59;100.00
8061;BME280;4073;42.626;25.386;2023-08-24T04:09:09;97179.19;;;22.56;100.00
8061;BME280;4073;42.626;25.386;2023-08-24T04:11:34;97180.72;;;22.69;100.00
8061;BME280;4073;42.626;25.386;2023-08-24T04:14:00;97157.22;;;22.64;100.00
8061;BME280;4073;42.626;25.386;2023-08-24T04:16:25;97175.97;;;22.82;100.00
8061;BME280;4073;42.626;25.386;2023-08-24T04:18:50;97183.13;;;22.86;100.00
8061;BME280;4073;42.626;25.386;2023-08-24T04:21:16;97173.38;;;22.85;100.00
8061;BME280;4073;42.626;25.386;2023-08-24T04:23:42;97179.06;;;22.96;100.00
8061;BME280;4073;42.626;25.386;2023-08-24T04:26:11;97183.94;;;23.02;100.00
8061;BME280;4073;42.626;25.386;2023-08-24T04:28:36;97188.75;;;23.09;100.00
8061;BME280;4073;42.626;25.386;2023-08-24T04:31:03;97192.47;;;23.16;100.00
8061;BME280;4073;42.626;25.386;2023-08-24T04:33:28;97189.81;;;23.20;100.00
8061;BME280;4073;42.626;25.386;2023-08-24T04:35:54;97196.63;;;23.26;100.00
8061;BME280;4073;42.626;25.386;2023-08-24T04:38:19;97184.56;;;23.27;100.00
8061;BME280;4073;42.626;25.386;2023-08-24T04:40:52;97190.63;;;23.36;100.00
8061;BME280;4073;42.626;25.386;2023-08-24T04:43:19;97194.69;;;23.42;100.00
8061;BME280;4073;42.626;25.386;2023-08-24T04:45:47;97195.28;;;23.51;100.00
8061;BME280;4073;42.626;25.386;2023-08-24T04:48:13;97196.75;;;23.64;100.00
8061;BME280;4073;42.626;25.386;2023-08-24T04:50:41;97190.69;;;23.70;100.00
8061;BME280;4073;42.626;25.386;2023-08-24T04:53:07;97193.13;;;23.75;100.00
8061;BME280;4073;42.626;25.386;2023-08-24T04:55:32;97191.25;;;23.79;100.00
8061;BME280;4073;42.626;25.386;2023-08-24T04:57:58;97199.09;;;23.96;100.00
8061;BME280;4073;42.626;25.386;2023-08-24T05:00:23;97192.81;;;24.11;100.00
8061;BME280;4073;42.626;25.386;2023-08-24T05:02:49;97201.34;;;24.29;100.00
8061;BME280;4073;42.626;25.386;2023-08-24T05:05:14;97191.72;;;24.35;100.00
8061;BME280;4073;42.626;25.386;2023-08-24T05:07:40;97191.94;;;24.45;100.00
8061;BME280;4073;42.626;25.386;2023-08-24T05:10:06;97205.53;;;24.61;100.00
8061;BME280;4073;42.626;25.386;2023-08-24T05:12:32;97201.09;;;24.72;100.00
8061;BME280;4073;42.626;25.386;2023-08-24T05:15:01;97193.00;;;24.79;100.00
8061;BME280;4073;42.626;25.386;2023-08-24T05:17:26;97199.47;;;24.90;100.00
8061;BME280;4073;42.626;25.386;2023-08-24T05:19:56;97203.94;;;24.98;100.00
8061;BME280;4073;42.626;25.386;2023-08-24T05:22:21;97215.00;;;25.05;100.00
8061;BME280;4073;42.626;25.386;2023-08-24T05:24:47;97215.13;;;25.12;100.00
8061;BME280;4073;42.626;25.386;2023-08-24T05:27:12;97209.69;;;25.15;100.00
8061;BME280;4073;42.626;25.386;2023-08-24T05:29:38;97206.59;;;25.17;100.00
8061;BME280;4073;42.626;25.386;2023-08-24T05:32:04;97213.59;;;25.14;100.00
8061;BME280;4073;42.626;25.386;2023-08-24T05:34:29;97211.78;;;25.22;100.00
8061;BME280;4073;42.626;25.386;2023-08-24T05:36:55;97213.44;;;25.27;100.00
8061;BME280;4073;42.626;25.386;2023-08-24T05:39:20;97214.63;;;25.29;100.00
8061;BME280;4073;42.626;25.386;2023-08-24T05:41:45;97207.75;;;25.35;100.00
8061;BME280;4073;42.626;25.386;2023-08-24T05:44:11;97217.19;;;25.41;100.00
8061;BME280;4073;42.626;25.386;2023-08-24T05:46:37;97204.94;;;25.32;100.00
8061;BME280;4073;42.626;25.386;2023-08-24T05:49:02;97210.50;;;25.39;100.00
8061;BME280;4073;42.626;25.386;2023-08-24T05:51:28;97221.16;;;25.44;100.00
8061;BME280;4073;42.626;25.386;2023-08-24T05:53:54;97227.53;;;25.51;100.00
8061;BME280;4073;42.626;25.386;2023-08-24T05:56:21;97229.31;;;25.40;100.00
8061;BME280;4073;42.626;25.386;2023-08-24T05:58:48;97229.19;;;25.56;100.00
8061;BME280;4073;42.626;25.386;2023-08-24T06:01:13;97238.03;;;25.72;96.59
8061;BME280;4073;42.626;25.386;2023-08-24T06:03:39;97241.22;;;25.74;95.86
8061;BME280;4073;42.626;25.386;2023-08-24T06:06:04;97237.63;;;25.70;95.09
8061;BME280;4073;42.626;25.386;2023-08-24T06:08:31;97243.88;;;25.70;94.44
8061;BME280;4073;42.626;25.386;2023-08-24T06:10:57;97237.94;;;25.65;93.93
8061;BME280;4073;42.626;25.386;2023-08-24T06:13:24;97250.66;;;25.54;94.53
8061;BME280;4073;42.626;25.386;2023-08-24T06:15:49;97256.44;;;25.49;95.65
8061;BME280;4073;42.626;25.386;2023-08-24T06:18:14;97244.03;;;25.55;95.74
8061;BME280;4073;42.626;25.386;2023-08-24T06:20:41;97259.16;;;25.71;94.02
8061;BME280;4073;42.626;25.386;2023-08-24T06:23:06;97256.75;;;25.92;92.58
8061;BME280;4073;42.626;25.386;2023-08-24T06:25:33;97249.88;;;26.02;90.27
8061;BME280;4073;42.626;25.386;2023-08-24T06:27:59;97252.09;;;26.19;89.34
8061;BME280;4073;42.626;25.386;2023-08-24T06:30:25;97235.38;;;26.27;88.73
8061;BME280;4073;42.626;25.386;2023-08-24T06:32:50;97242.91;;;26.34;88.53
8061;BME280;4073;42.626;25.386;2023-08-24T06:35:16;97228.16;;;26.16;86.42
8061;BME280;4073;42.626;25.386;2023-08-24T06:37:42;97220.59;;;26.06;81.63
8061;BME280;4073;42.626;25.386;2023-08-24T06:40:08;97225.22;;;26.02;86.14
8061;BME280;4073;42.626;25.386;2023-08-24T06:42:34;97241.41;;;26.10;84.47
8061;BME280;4073;42.626;25.386;2023-08-24T06:45:00;97239.94;;;26.16;89.84
8061;BME280;4073;42.626;25.386;2023-08-24T06:47:25;97246.56;;;26.15;97.19
8061;BME280;4073;42.626;25.386;2023-08-24T06:49:51;97253.91;;;26.08;100.00
8061;BME280;4073;42.626;25.386;2023-08-24T06:52:16;97251.41;;;25.77;100.00
8061;BME280;4073;42.626;25.386;2023-08-24T06:54:42;97241.84;;;25.64;100.00
8061;BME280;4073;42.626;25.386;2023-08-24T06:57:07;97237.16;;;25.42;94.76
8061;BME280;4073;42.626;25.386;2023-08-24T06:59:33;97243.47;;;25.46;100.00
8061;BME280;4073;42.626;25.386;2023-08-24T07:01:59;97249.16;;;25.34;100.00
8061;BME280;4073;42.626;25.386;2023-08-24T07:04:25;97240.22;;;25.17;100.00
8061;BME280;4073;42.626;25.386;2023-08-24T07:06:52;97252.00;;;24.99;100.00
8061;BME280;4073;42.626;25.386;2023-08-24T07:09:18;97256.53;;;24.91;100.00
8061;BME280;4073;42.626;25.386;2023-08-24T07:11:44;97259.22;;;24.88;100.00
8061;BME280;4073;42.626;25.386;2023-08-24T07:14:09;97257.41;;;24.76;100.00
8061;BME280;4073;42.626;25.386;2023-08-24T07:16:35;97265.13;;;24.71;100.00
8061;BME280;4073;42.626;25.386;2023-08-24T07:19:00;97243.81;;;24.61;100.00
8061;BME280;4073;42.626;25.386;2023-08-24T07:21:26;97252.00;;;24.61;100.00
8061;BME280;4073;42.626;25.386;2023-08-24T07:23:51;97258.25;;;24.61;100.00
8061;BME280;4073;42.626;25.386;2023-08-24T07:26:17;97267.25;;;24.43;100.00
8061;BME280;4073;42.626;25.386;2023-08-24T07:28:42;97277.03;;;24.44;100.00
8061;BME280;4073;42.626;25.386;2023-08-24T07:31:09;97267.94;;;24.21;100.00
8061;BME280;4073;42.626;25.386;2023-08-24T07:33:36;97261.50;;;24.13;100.00
8061;BME280;4073;42.626;25.386;2023-08-24T07:36:04;97253.16;;;23.91;100.00
8061;BME280;4073;42.626;25.386;2023-08-24T07:38:30;97252.56;;;23.97;100.00
8061;BME280;4073;42.626;25.386;2023-08-24T07:40:56;97259.06;;;24.08;100.00
8061;BME280;4073;42.626;25.386;2023-08-24T07:43:22;97259.72;;;24.21;100.00
8061;BME280;4073;42.626;25.386;2023-08-24T07:45:47;97270.66;;;24.21;100.00
8061;BME280;4073;42.626;25.386;2023-08-24T07:48:13;97282.97;;;24.30;100.00
8061;BME280;4073;42.626;25.386;2023-08-24T07:50:38;97278.38;;;24.34;100.00
8061;BME280;4073;42.626;25.386;2023-08-24T07:53:04;97283.91;;;24.38;100.00
8061;BME280;4073;42.626;25.386;2023-08-24T07:55:30;97283.13;;;24.37;100.00
8061;BME280;4073;42.626;25.386;2023-08-24T07:57:55;97278.91;;;24.40;100.00
8061;BME280;4073;42.626;25.386;2023-08-24T08:00:21;97288.09;;;24.51;100.00
8061;BME280;4073;42.626;25.386;2023-08-24T08:02:50;97286.38;;;24.62;100.00
8061;BME280;4073;42.626;25.386;2023-08-24T08:05:16;97283.59;;;24.77;100.00
8061;BME280;4073;42.626;25.386;2023-08-24T08:07:41;97273.59;;;24.85;100.00
8061;BME280;4073;42.626;25.386;2023-08-24T08:10:07;97260.88;;;24.92;100.00
8061;BME280;4073;42.626;25.386;2023-08-24T08:12:33;97269.69;;;25.05;100.00
8061;BME280;4073;42.626;25.386;2023-08-24T08:14:59;97258.41;;;25.06;100.00
8061;BME280;4073;42.626;25.386;2023-08-24T08:17:24;97270.25;;;25.14;100.00
8061;BME280;4073;42.626;25.386;2023-08-24T08:19:54;97267.94;;;25.16;100.00
8061;BME280;4073;42.626;25.386;2023-08-24T08:22:20;97285.78;;;25.29;100.00
8061;BME280;4073;42.626;25.386;2023-08-24T08:24:46;97280.94;;;25.42;100.00
8061;BME280;4073;42.626;25.386;2023-08-24T08:27:11;97285.00;;;25.51;100.00
8061;BME280;4073;42.626;25.386;2023-08-24T08:29:36;97272.13;;;25.52;100.00
8061;BME280;4073;42.626;25.386;2023-08-24T08:32:02;97268.22;;;25.53;100.00
8061;BME280;4073;42.626;25.386;2023-08-24T08:34:27;97264.28;;;25.50;100.00
8061;BME280;4073;42.626;25.386;2023-08-24T08:36:53;97264.41;;;25.57;100.00
8061;BME280;4073;42.626;25.386;2023-08-24T08:39:18;97269.00;;;25.76;100.00
8061;BME280;4073;42.626;25.386;2023-08-24T08:41:45;97265.81;;;26.22;100.00
8061;BME280;4073;42.626;25.386;2023-08-24T08:44:15;97260.16;;;26.64;100.00
8061;BME280;4073;42.626;25.386;2023-08-24T08:46:42;97250.75;;;26.98;100.00
8061;BME280;4073;42.626;25.386;2023-08-24T08:49:08;97246.25;;;27.56;100.00
8061;BME280;4073;42.626;25.386;2023-08-24T08:51:37;97250.84;;;27.85;100.00
8061;BME280;4073;42.626;25.386;2023-08-24T08:54:06;97256.50;;;28.06;100.00
8061;BME280;4073;42.626;25.386;2023-08-24T08:56:33;97262.53;;;28.29;100.00
8061;BME280;4073;42.626;25.386;2023-08-24T08:58:59;97255.22;;;28.51;100.00
8061;BME280;4073;42.626;25.386;2023-08-24T09:01:26;97256.06;;;28.72;100.00
8061;BME280;4073;42.626;25.386;2023-08-24T09:03:53;97253.44;;;28.93;100.00
8061;BME280;4073;42.626;25.386;2023-08-24T09:06:19;97254.69;;;29.10;100.00
8061;BME280;4073;42.626;25.386;2023-08-24T09:08:45;97257.88;;;29.36;100.00
8061;BME280;4073;42.626;25.386;2023-08-24T09:11:11;97244.94;;;29.79;100.00
8061;BME280;4073;42.626;25.386;2023-08-24T09:13:37;97251.94;;;30.54;100.00
8061;BME280;4073;42.626;25.386;2023-08-24T09:16:06;97244.75;;;31.53;98.95
8061;BME280;4073;42.626;25.386;2023-08-24T09:18:39;97234.56;;;32.31;78.42
8061;BME280;4073;42.626;25.386;2023-08-24T09:21:12;97233.63;;;33.12;71.63
8061;BME280;4073;42.626;25.386;2023-08-24T09:23:43;97232.28;;;33.76;69.19
8061;BME280;4073;42.626;25.386;2023-08-24T09:26:10;97219.22;;;34.43;62.41
8061;BME280;4073;42.626;25.386;2023-08-24T09:28:35;97219.28;;;34.78;58.19
8061;BME280;4073;42.626;25.386;2023-08-24T09:31:02;97228.06;;;34.38;53.11
8061;BME280;4073;42.626;25.386;2023-08-24T09:33:29;97218.22;;;34.10;53.25
8061;BME280;4073;42.626;25.386;2023-08-24T09:35:55;97224.25;;;33.82;56.78
8061;BME280;4073;42.626;25.386;2023-08-24T09:38:27;97214.66;;;34.09;53.08
8061;BME280;4073;42.626;25.386;2023-08-24T09:40:55;97215.38;;;34.37;50.82
8061;BME280;4073;42.626;25.386;2023-08-24T09:43:22;97214.44;;;34.82;49.35
8061;BME280;4073;42.626;25.386;2023-08-24T09:45:51;97203.88;;;35.13;46.22
8061;BME280;4073;42.626;25.386;2023-08-24T09:48:17;97207.09;;;35.11;45.37
8061;BME280;4073;42.626;25.386;2023-08-24T09:50:48;97202.75;;;35.10;44.25
8061;BME280;4073;42.626;25.386;2023-08-24T09:55:53;97196.78;;;35.12;46.13
8061;BME280;4073;42.626;25.386;2023-08-24T09:58:21;97194.59;;;35.19;43.74
8061;BME280;4073;42.626;25.386;2023-08-24T10:00:48;97198.00;;;35.27;44.78
8061;BME280;4073;42.626;25.386;2023-08-24T10:03:17;97192.66;;;35.36;43.42
8061;BME280;4073;42.626;25.386;2023-08-24T10:05:48;97191.72;;;35.58;41.81
8061;BME280;4073;42.626;25.386;2023-08-24T10:08:17;97183.19;;;35.65;40.29
8061;BME280;4073;42.626;25.386;2023-08-24T10:10:46;97184.94;;;35.59;40.72
8061;BME280;4073;42.626;25.386;2023-08-24T10:13:33;97176.69;;;35.56;40.35
8061;BME280;4073;42.626;25.386;2023-08-24T10:16:03;97184.25;;;35.55;40.14
8061;BME280;4073;42.626;25.386;2023-08-24T10:18:30;97171.56;;;35.38;40.04
8061;BME280;4073;42.626;25.386;2023-08-24T10:20:56;97174.50;;;35.47;40.34
8061;BME280;4073;42.626;25.386;2023-08-24T10:23:21;97163.22;;;35.54;40.94
8061;BME280;4073;42.626;25.386;2023-08-24T10:25:51;97174.88;;;35.81;41.29
8061;BME280;4073;42.626;25.386;2023-08-24T10:28:17;97159.22;;;36.16;43.65
8061;BME280;4073;42.626;25.386;2023-08-24T10:30:44;97166.47;;;36.42;45.30
8061;BME280;4073;42.626;25.386;2023-08-24T10:33:12;97164.94;;;35.96;50.31
8061;BME280;4073;42.626;25.386;2023-08-24T10:35:39;97153.19;;;35.89;52.24
8061;BME280;4073;42.626;25.386;2023-08-24T10:38:05;97147.25;;;36.03;49.92
8061;BME280;4073;42.626;25.386;2023-08-24T10:40:35;97148.59;;;36.27;50.95
8061;BME280;4073;42.626;25.386;2023-08-24T10:43:05;97156.38;;;36.03;50.64
8061;BME280;4073;42.626;25.386;2023-08-24T10:45:56;97137.16;;;35.48;53.67
8061;BME280;4073;42.626;25.386;2023-08-24T10:53:41;97120.69;;;34.70;52.29
8061;BME280;4073;42.626;25.386;2023-08-24T10:56:13;97125.97;;;34.65;51.66
8061;BME280;4073;42.626;25.386;2023-08-24T10:58:40;97113.31;;;34.44;53.07
8061;BME280;4073;42.626;25.386;2023-08-24T11:01:05;97114.88;;;34.65;52.46
8061;BME280;4073;42.626;25.386;2023-08-24T11:03:32;97101.94;;;34.74;50.02
8061;BME280;4073;42.626;25.386;2023-08-24T11:05:58;97090.38;;;35.59;47.94
8061;BME280;4073;42.626;25.386;2023-08-24T11:08:44;97100.00;;;36.57;43.57
8061;BME280;4073;42.626;25.386;2023-08-24T11:11:22;97087.94;;;37.60;37.44
8061;BME280;4073;42.626;25.386;2023-08-24T11:14:18;97091.13;;;38.17;35.46
8061;BME280;4073;42.626;25.386;2023-08-24T11:16:47;97073.06;;;38.31;35.00
8061;BME280;4073;42.626;25.386;2023-08-24T11:19:14;97074.31;;;38.91;33.46
8061;BME280;4073;42.626;25.386;2023-08-24T11:21:42;97076.22;;;39.43;32.39
8061;BME280;4073;42.626;25.386;2023-08-24T11:24:09;97076.44;;;40.11;31.81
8061;BME280;4073;42.626;25.386;2023-08-24T11:26:35;97073.38;;;40.78;31.02
8061;BME280;4073;42.626;25.386;2023-08-24T11:29:05;97066.56;;;41.35;29.30
8061;BME280;4073;42.626;25.386;2023-08-24T11:31:30;97067.53;;;41.79;28.76
8061;BME280;4073;42.626;25.386;2023-08-24T11:33:56;97061.75;;;41.36;29.10
8061;BME280;4073;42.626;25.386;2023-08-24T11:36:21;97064.19;;;41.66;28.88
8061;BME280;4073;42.626;25.386;2023-08-24T11:38:52;97049.91;;;42.17;28.48
8061;BME280;4073;42.626;25.386;2023-08-24T11:41:18;97050.72;;;42.46;27.56
8061;BME280;4073;42.626;25.386;2023-08-24T11:43:46;97047.91;;;42.32;27.97
8061;BME280;4073;42.626;25.386;2023-08-24T11:46:17;97047.28;;;41.75;28.23
8061;BME280;4073;42.626;25.386;2023-08-24T11:48:43;97042.94;;;40.95;28.70
8061;BME280;4073;42.626;25.386;2023-08-24T11:51:10;97039.47;;;40.58;29.56
8061;BME280;4073;42.626;25.386;2023-08-24T11:53:39;97028.22;;;40.07;30.13
8061;BME280;4073;42.626;25.386;2023-08-24T11:56:05;97035.06;;;39.61;30.53
8061;BME280;4073;42.626;25.386;2023-08-24T11:58:31;97030.31;;;38.74;31.90
8061;BME280;4073;42.626;25.386;2023-08-24T12:00:57;97017.19;;;38.52;31.62
8061;BME280;4073;42.626;25.386;2023-08-24T12:03:23;97013.88;;;38.45;31.73
8061;BME280;4073;42.626;25.386;2023-08-24T12:05:49;97015.69;;;38.39;31.97
8061;BME280;4073;42.626;25.386;2023-08-24T12:08:15;96996.47;;;38.41;32.69
8061;BME280;4073;42.626;25.386;2023-08-24T12:10:43;97000.19;;;38.38;32.48
8061;BME280;4073;42.626;25.386;2023-08-24T12:13:12;96989.66;;;38.11;32.12
8061;BME280;4073;42.626;25.386;2023-08-24T12:15:37;96994.84;;;37.79;32.80
8061;BME280;4073;42.626;25.386;2023-08-24T12:18:13;96991.38;;;37.53;33.67
8061;BME280;4073;42.626;25.386;2023-08-24T12:20:40;96989.84;;;37.40;35.32
8061;BME280;4073;42.626;25.386;2023-08-24T12:23:06;96988.59;;;36.94;37.55
8061;BME280;4073;42.626;25.386;2023-08-24T12:25:42;96986.72;;;36.66;38.48
8061;BME280;4073;42.626;25.386;2023-08-24T12:28:12;96993.94;;;36.38;40.10
8061;BME280;4073;42.626;25.386;2023-08-24T12:30:52;96999.53;;;35.69;45.47
8061;BME280;4073;42.626;25.386;2023-08-24T12:33:31;96994.88;;;35.05;46.43
8061;BME280;4073;42.626;25.386;2023-08-24T12:35:57;97009.94;;;34.72;50.60
8061;BME280;4073;42.626;25.386;2023-08-24T12:38:25;97009.69;;;34.15;59.00
8061;BME280;4073;42.626;25.386;2023-08-24T12:40:51;97018.72;;;33.57;66.66
8061;BME280;4073;42.626;25.386;2023-08-24T12:43:17;97009.75;;;32.84;65.05
8061;BME280;4073;42.626;25.386;2023-08-24T12:45:42;97010.31;;;32.45;70.34
8061;BME280;4073;42.626;25.386;2023-08-24T12:48:08;97007.31;;;32.03;71.27
8061;BME280;4073;42.626;25.386;2023-08-24T12:50:35;97013.19;;;31.74;71.16
8061;BME280;4073;42.626;25.386;2023-08-24T12:53:00;97026.84;;;31.55;72.92
8061;BME280;4073;42.626;25.386;2023-08-24T12:55:27;97030.84;;;31.47;80.18
8061;BME280;4073;42.626;25.386;2023-08-24T12:57:52;97033.81;;;31.22;74.96
8061;BME280;4073;42.626;25.386;2023-08-24T13:00:18;97027.78;;;30.94;73.56
8061;BME280;4073;42.626;25.386;2023-08-24T13:02:44;97035.56;;;30.51;75.27
8061;BME280;4073;42.626;25.386;2023-08-24T13:05:10;97033.56;;;29.73;71.98
8061;BME280;4073;42.626;25.386;2023-08-24T13:07:36;97021.06;;;29.29;71.42
8061;BME280;4073;42.626;25.386;2023-08-24T13:10:02;97016.38;;;29.16;69.66
8061;BME280;4073;42.626;25.386;2023-08-24T13:12:29;97014.81;;;29.11;67.47
8061;BME280;4073;42.626;25.386;2023-08-24T13:14:54;97028.94;;;29.10;68.48